sensor_id;sensor_type;location;lat;lon;timestamp;temperature;humidity
44695;DHT22;32845;59.422;17.930;2023-02-17T00:00:11;3.40;99.90
44695;DHT22;32845;59.422;17.930;2023-02-17T00:04:42;3.40;99.90
44695;DHT22;32845;59.422;17.930;2023-02-17T00:09:17;3.40;99.90
44695;DHT22;32845;59.422;17.930;2023-02-17T00:13:48;3.40;99.90
44695;DHT22;32845;59.422;17.930;2023-02-17T00:18:21;3.30;99.90
44695;DHT22;32845;59.422;17.930;2023-02-17T00:22:51;3.30;99.90
44695;DHT22;32845;59.422;17.930;2023-02-17T00:27:22;3.30;99.90
44695;DHT22;32845;59.422;17.930;2023-02-17T00:31:53;3.30;99.90
44695;DHT22;32845;59.422;17.930;2023-02-17T00:36:26;3.30;99.90
44695;DHT22;32845;59.422;17.930;2023-02-17T00:40:57;3.30;99.90
44695;DHT22;32845;59.422;17.930;2023-02-17T00:45:28;3.30;99.90
44695;DHT22;32845;59.422;17.930;2023-02-17T00:49:59;3.30;99.90
44695;DHT22;32845;59.422;17.930;2023-02-17T00:54:29;3.30;99.90
44695;DHT22;32845;59.422;17.930;2023-02-17T00:59:00;3.40;99.90
44695;DHT22;32845;59.422;17.930;2023-02-17T01:03:31;3.40;99.90
44695;DHT22;32845;59.422;17.930;2023-02-17T01:08:02;3.30;99.90
44695;DHT22;32845;59.422;17.930;2023-02-17T01:12:32;3.20;99.90
44695;DHT22;32845;59.422;17.930;2023-02-17T01:17:03;3.20;99.90
44695;DHT22;32845;59.422;17.930;2023-02-17T01:21:34;3.10;99.90
44695;DHT22;32845;59.422;17.930;2023-02-17T01:26:05;3.10;99.90
44695;DHT22;32845;59.422;17.930;2023-02-17T01:30:36;3.10;99.90
44695;DHT22;32845;59.422;17.930;2023-02-17T01:35:07;3.20;99.90
44695;DHT22;32845;59.422;17.930;2023-02-17T01:39:38;3.20;99.90
44695;DHT22;32845;59.422;17.930;2023-02-17T01:44:20;3.20;99.90
44695;DHT22;32845;59.422;17.930;2023-02-17T01:48:51;3.20;99.90
44695;DHT22;32845;59.422;17.930;2023-02-17T01:53:26;3.20;99.90
44695;DHT22;32845;59.422;17.930;2023-02-17T01:58:00;3.20;99.90
44695;DHT22;32845;59.422;17.930;2023-02-17T02:02:32;3.30;99.90
44695;DHT22;32845;59.422;17.930;2023-02-17T02:07:05;3.30;99.90
44695;DHT22;32845;59.422;17.930;2023-02-17T02:11:39;3.40;99.90
44695;DHT22;32845;59.422;17.930;2023-02-17T02:16:22;3.40;99.90
44695;DHT22;32845;59.422;17.930;2023-02-17T02:26:04;3.40;99.90
44695;DHT22;32845;59.422;17.930;2023-02-17T02:30:52;3.50;99.90
44695;DHT22;32845;59.422;17.930;2023-02-17T02:35:37;3.50;99.90
44695;DHT22;32845;59.422;17.930;2023-02-17T02:40:15;3.50;99.90
44695;DHT22;32845;59.422;17.930;2023-02-17T02:44:47;3.50;99.90
44695;DHT22;32845;59.422;17.930;2023-02-17T02:49:17;3.60;99.90
44695;DHT22;32845;59.422;17.930;2023-02-17T02:54:15;3.60;99.90
44695;DHT22;32845;59.422;17.930;2023-02-17T03:03:50;3.70;99.90
44695;DHT22;32845;59.422;17.930;2023-02-17T03:13:01;3.80;99.90
44695;DHT22;32845;59.422;17.930;2023-02-17T03:17:32;3.90;99.90
44695;DHT22;32845;59.422;17.930;2023-02-17T03:22:16;3.90;99.90
44695;DHT22;32845;59.422;17.930;2023-02-17T03:26:48;3.90;99.90
44695;DHT22;32845;59.422;17.930;2023-02-17T03:31:19;3.90;99.90
44695;DHT22;32845;59.422;17.930;2023-02-17T03:35:49;4.00;99.90
44695;DHT22;32845;59.422;17.930;2023-02-17T03:40:20;4.00;99.90
44695;DHT22;32845;59.422;17.930;2023-02-17T03:44:51;4.00;99.90
44695;DHT22;32845;59.422;17.930;2023-02-17T03:49:21;4.00;99.90
44695;DHT22;32845;59.422;17.930;2023-02-17T03:53:52;4.10;99.90
44695;DHT22;32845;59.422;17.930;2023-02-17T03:58:23;4.10;99.90
44695;DHT22;32845;59.422;17.930;2023-02-17T04:02:54;4.00;99.90
44695;DHT22;32845;59.422;17.930;2023-02-17T04:07:26;4.00;99.90
44695;DHT22;32845;59.422;17.930;2023-02-17T04:11:57;4.00;99.90
44695;DHT22;32845;59.422;17.930;2023-02-17T04:16:28;4.00;99.90
44695;DHT22;32845;59.422;17.930;2023-02-17T04:20:58;4.00;99.90
44695;DHT22;32845;59.422;17.930;2023-02-17T04:25:32;4.00;99.90
44695;DHT22;32845;59.422;17.930;2023-02-17T04:30:03;4.00;99.90
44695;DHT22;32845;59.422;17.930;2023-02-17T04:34:34;4.00;99.90
44695;DHT22;32845;59.422;17.930;2023-02-17T04:39:05;3.90;99.90
44695;DHT22;32845;59.422;17.930;2023-02-17T04:43:36;3.90;99.90
44695;DHT22;32845;59.422;17.930;2023-02-17T04:48:06;3.90;99.90
44695;DHT22;32845;59.422;17.930;2023-02-17T04:52:37;3.90;99.90
44695;DHT22;32845;59.422;17.930;2023-02-17T04:57:08;3.90;99.90
44695;DHT22;32845;59.422;17.930;2023-02-17T05:01:39;3.90;99.90
44695;DHT22;32845;59.422;17.930;2023-02-17T05:06:09;3.90;99.90
44695;DHT22;32845;59.422;17.930;2023-02-17T05:10:40;3.90;99.90
44695;DHT22;32845;59.422;17.930;2023-02-17T05:15:11;3.90;99.90
44695;DHT22;32845;59.422;17.930;2023-02-17T05:19:42;3.90;99.90
44695;DHT22;32845;59.422;17.930;2023-02-17T05:24:13;3.90;99.90
44695;DHT22;32845;59.422;17.930;2023-02-17T05:28:43;4.00;99.90
44695;DHT22;32845;59.422;17.930;2023-02-17T05:33:14;4.00;99.90
44695;DHT22;32845;59.422;17.930;2023-02-17T05:37:45;4.00;99.90
44695;DHT22;32845;59.422;17.930;2023-02-17T05:42:16;4.00;99.90
44695;DHT22;32845;59.422;17.930;2023-02-17T05:46:47;4.10;99.90
44695;DHT22;32845;59.422;17.930;2023-02-17T05:51:17;4.10;99.90
44695;DHT22;32845;59.422;17.930;2023-02-17T05:55:48;4.10;99.90
44695;DHT22;32845;59.422;17.930;2023-02-17T06:00:19;4.20;99.90
44695;DHT22;32845;59.422;17.930;2023-02-17T06:04:49;4.20;99.90
44695;DHT22;32845;59.422;17.930;2023-02-17T06:09:20;4.20;99.90
44695;DHT22;32845;59.422;17.930;2023-02-17T06:13:51;4.20;99.90
44695;DHT22;32845;59.422;17.930;2023-02-17T06:18:22;4.20;99.90
44695;DHT22;32845;59.422;17.930;2023-02-17T06:22:52;4.20;99.90
44695;DHT22;32845;59.422;17.930;2023-02-17T06:27:23;4.30;99.90
44695;DHT22;32845;59.422;17.930;2023-02-17T06:31:54;4.30;99.90
44695;DHT22;32845;59.422;17.930;2023-02-17T06:36:24;4.30;99.90
44695;DHT22;32845;59.422;17.930;2023-02-17T06:40:55;4.30;99.90
44695;DHT22;32845;59.422;17.930;2023-02-17T06:45:26;4.30;99.90
44695;DHT22;32845;59.422;17.930;2023-02-17T06:49:56;4.40;99.90
44695;DHT22;32845;59.422;17.930;2023-02-17T06:54:27;4.40;99.90
44695;DHT22;32845;59.422;17.930;2023-02-17T06:58:59;4.40;99.90
44695;DHT22;32845;59.422;17.930;2023-02-17T07:03:31;4.40;99.90
44695;DHT22;32845;59.422;17.930;2023-02-17T07:08:02;4.40;99.90
44695;DHT22;32845;59.422;17.930;2023-02-17T07:12:33;4.40;99.90
44695;DHT22;32845;59.422;17.930;2023-02-17T07:17:04;4.30;99.90
44695;DHT22;32845;59.422;17.930;2023-02-17T07:21:34;4.40;99.90
44695;DHT22;32845;59.422;17.930;2023-02-17T07:26:07;4.40;99.90
44695;DHT22;32845;59.422;17.930;2023-02-17T07:30:42;4.40;99.90
44695;DHT22;32845;59.422;17.930;2023-02-17T07:35:13;4.40;99.90
44695;DHT22;32845;59.422;17.930;2023-02-17T07:39:44;4.40;99.90
44695;DHT22;32845;59.422;17.930;2023-02-17T07:44:14;4.40;99.90
44695;DHT22;32845;59.422;17.930;2023-02-17T07:48:46;4.40;99.90
44695;DHT22;32845;59.422;17.930;2023-02-17T07:53:16;4.40;99.90
44695;DHT22;32845;59.422;17.930;2023-02-17T07:57:47;4.40;99.90
44695;DHT22;32845;59.422;17.930;2023-02-17T08:02:18;4.50;99.90
44695;DHT22;32845;59.422;17.930;2023-02-17T08:06:48;4.50;99.90
44695;DHT22;32845;59.422;17.930;2023-02-17T08:11:19;4.60;99.90
44695;DHT22;32845;59.422;17.930;2023-02-17T08:16:08;4.60;99.90
44695;DHT22;32845;59.422;17.930;2023-02-17T08:20:39;4.70;99.90
44695;DHT22;32845;59.422;17.930;2023-02-17T08:25:10;4.70;99.90
44695;DHT22;32845;59.422;17.930;2023-02-17T08:29:41;4.80;99.90
44695;DHT22;32845;59.422;17.930;2023-02-17T08:34:12;4.90;99.90
44695;DHT22;32845;59.422;17.930;2023-02-17T08:38:43;5.00;99.90
44695;DHT22;32845;59.422;17.930;2023-02-17T08:43:19;5.00;99.90
44695;DHT22;32845;59.422;17.930;2023-02-17T08:47:50;5.10;99.90
44695;DHT22;32845;59.422;17.930;2023-02-17T08:52:20;5.20;99.90
44695;DHT22;32845;59.422;17.930;2023-02-17T08:56:51;5.20;99.90
44695;DHT22;32845;59.422;17.930;2023-02-17T09:01:22;5.20;99.90
44695;DHT22;32845;59.422;17.930;2023-02-17T09:05:55;5.30;99.90
44695;DHT22;32845;59.422;17.930;2023-02-17T09:10:26;5.40;99.90
44695;DHT22;32845;59.422;17.930;2023-02-17T09:14:56;5.50;99.90
44695;DHT22;32845;59.422;17.930;2023-02-17T09:19:27;5.50;99.90
44695;DHT22;32845;59.422;17.930;2023-02-17T09:23:58;5.50;99.90
44695;DHT22;32845;59.422;17.930;2023-02-17T09:28:28;5.50;99.90
44695;DHT22;32845;59.422;17.930;2023-02-17T09:32:59;5.60;99.90
44695;DHT22;32845;59.422;17.930;2023-02-17T09:37:30;5.60;99.90
44695;DHT22;32845;59.422;17.930;2023-02-17T09:42:01;5.60;99.90
44695;DHT22;32845;59.422;17.930;2023-02-17T09:46:39;5.60;99.90
44695;DHT22;32845;59.422;17.930;2023-02-17T09:51:31;5.60;99.90
44695;DHT22;32845;59.422;17.930;2023-02-17T09:56:05;5.60;99.90
44695;DHT22;32845;59.422;17.930;2023-02-17T10:00:42;5.70;99.90
44695;DHT22;32845;59.422;17.930;2023-02-17T10:05:18;5.70;99.90
44695;DHT22;32845;59.422;17.930;2023-02-17T10:10:02;5.80;99.90
44695;DHT22;32845;59.422;17.930;2023-02-17T10:19:15;5.90;99.90
44695;DHT22;32845;59.422;17.930;2023-02-17T10:23:48;5.90;99.90
44695;DHT22;32845;59.422;17.930;2023-02-17T10:28:32;6.00;99.90
44695;DHT22;32845;59.422;17.930;2023-02-17T10:33:24;6.00;99.90
44695;DHT22;32845;59.422;17.930;2023-02-17T10:38:27;6.00;99.90
44695;DHT22;32845;59.422;17.930;2023-02-17T10:42:54;6.00;99.90
44695;DHT22;32845;59.422;17.930;2023-02-17T10:47:25;5.90;99.90
44695;DHT22;32845;59.422;17.930;2023-02-17T10:52:17;5.90;99.90
44695;DHT22;32845;59.422;17.930;2023-02-17T10:56:52;5.90;99.90
44695;DHT22;32845;59.422;17.930;2023-02-17T11:01:27;5.80;99.90
44695;DHT22;32845;59.422;17.930;2023-02-17T11:06:01;5.90;99.90
44695;DHT22;32845;59.422;17.930;2023-02-17T11:10:36;5.80;99.90
44695;DHT22;32845;59.422;17.930;2023-02-17T11:15:21;5.80;99.90
44695;DHT22;32845;59.422;17.930;2023-02-17T11:19:58;5.90;99.90
44695;DHT22;32845;59.422;17.930;2023-02-17T11:24:31;5.90;99.90
44695;DHT22;32845;59.422;17.930;2023-02-17T11:29:07;5.90;99.90
44695;DHT22;32845;59.422;17.930;2023-02-17T11:33:39;5.90;99.90
44695;DHT22;32845;59.422;17.930;2023-02-17T11:38:15;5.90;99.90
44695;DHT22;32845;59.422;17.930;2023-02-17T11:42:54;5.90;99.90
44695;DHT22;32845;59.422;17.930;2023-02-17T12:07:35;5.70;99.90
44695;DHT22;32845;59.422;17.930;2023-02-17T12:16:50;5.60;99.90
44695;DHT22;32845;59.422;17.930;2023-02-17T12:21:33;5.50;99.90
44695;DHT22;32845;59.422;17.930;2023-02-17T12:26:24;5.50;99.90
44695;DHT22;32845;59.422;17.930;2023-02-17T12:35:54;5.40;99.90
44695;DHT22;32845;59.422;17.930;2023-02-17T12:40:35;5.30;99.90
44695;DHT22;32845;59.422;17.930;2023-02-17T12:45:17;5.20;99.90
44695;DHT22;32845;59.422;17.930;2023-02-17T12:55:09;5.20;99.90
44695;DHT22;32845;59.422;17.930;2023-02-17T12:59:50;5.10;99.90
44695;DHT22;32845;59.422;17.930;2023-02-17T13:04:22;5.00;99.90
44695;DHT22;32845;59.422;17.930;2023-02-17T13:09:02;5.00;99.90
44695;DHT22;32845;59.422;17.930;2023-02-17T13:13:34;4.90;99.90
44695;DHT22;32845;59.422;17.930;2023-02-17T13:18:24;4.80;99.90
44695;DHT22;32845;59.422;17.930;2023-02-17T13:23:10;4.70;99.90
44695;DHT22;32845;59.422;17.930;2023-02-17T13:27:41;4.60;99.90
44695;DHT22;32845;59.422;17.930;2023-02-17T13:32:12;4.50;99.90
44695;DHT22;32845;59.422;17.930;2023-02-17T13:36:43;4.50;99.90
44695;DHT22;32845;59.422;17.930;2023-02-17T13:41:13;4.40;99.90
44695;DHT22;32845;59.422;17.930;2023-02-17T13:45:48;4.40;99.90
44695;DHT22;32845;59.422;17.930;2023-02-17T13:50:36;4.30;99.90
44695;DHT22;32845;59.422;17.930;2023-02-17T13:55:17;4.30;99.90
44695;DHT22;32845;59.422;17.930;2023-02-17T13:59:48;4.20;99.90
44695;DHT22;32845;59.422;17.930;2023-02-17T14:04:29;4.20;99.90
44695;DHT22;32845;59.422;17.930;2023-02-17T14:09:11;4.20;99.90
44695;DHT22;32845;59.422;17.930;2023-02-17T14:13:46;4.20;99.90
44695;DHT22;32845;59.422;17.930;2023-02-17T14:23:01;4.20;99.90
44695;DHT22;32845;59.422;17.930;2023-02-17T14:27:42;4.20;99.90
44695;DHT22;32845;59.422;17.930;2023-02-17T14:32:33;4.20;99.90
44695;DHT22;32845;59.422;17.930;2023-02-17T14:37:08;4.10;99.90
44695;DHT22;32845;59.422;17.930;2023-02-17T14:41:39;4.10;99.90
44695;DHT22;32845;59.422;17.930;2023-02-17T14:46:10;4.10;99.90
44695;DHT22;32845;59.422;17.930;2023-02-17T14:50:41;4.10;99.90
44695;DHT22;32845;59.422;17.930;2023-02-17T14:55:43;4.10;99.90
44695;DHT22;32845;59.422;17.930;2023-02-17T15:00:15;4.10;99.90
44695;DHT22;32845;59.422;17.930;2023-02-17T15:04:46;4.00;99.90
44695;DHT22;32845;59.422;17.930;2023-02-17T15:09:19;4.00;99.90
44695;DHT22;32845;59.422;17.930;2023-02-17T15:13:53;4.00;99.90
44695;DHT22;32845;59.422;17.930;2023-02-17T15:18:24;3.90;99.90
44695;DHT22;32845;59.422;17.930;2023-02-17T15:22:56;3.90;99.90
44695;DHT22;32845;59.422;17.930;2023-02-17T15:27:27;3.90;99.90
44695;DHT22;32845;59.422;17.930;2023-02-17T15:31:59;3.90;99.90
44695;DHT22;32845;59.422;17.930;2023-02-17T15:36:31;3.90;99.90
44695;DHT22;32845;59.422;17.930;2023-02-17T15:41:02;3.90;99.90
44695;DHT22;32845;59.422;17.930;2023-02-17T15:45:34;3.90;99.90
44695;DHT22;32845;59.422;17.930;2023-02-17T15:50:11;3.90;99.90
44695;DHT22;32845;59.422;17.930;2023-02-17T15:54:42;3.90;99.90
44695;DHT22;32845;59.422;17.930;2023-02-17T15:59:20;3.90;99.90
44695;DHT22;32845;59.422;17.930;2023-02-17T16:03:51;3.90;99.90
44695;DHT22;32845;59.422;17.930;2023-02-17T16:08:22;3.90;99.90
44695;DHT22;32845;59.422;17.930;2023-02-17T16:12:54;4.00;99.90
44695;DHT22;32845;59.422;17.930;2023-02-17T16:17:26;4.00;99.90
44695;DHT22;32845;59.422;17.930;2023-02-17T16:21:57;4.00;99.90
44695;DHT22;32845;59.422;17.930;2023-02-17T16:26:31;4.00;99.90
44695;DHT22;32845;59.422;17.930;2023-02-17T16:31:02;4.00;99.90
44695;DHT22;32845;59.422;17.930;2023-02-17T16:35:33;4.10;99.90
44695;DHT22;32845;59.422;17.930;2023-02-17T16:40:13;4.10;99.90
44695;DHT22;32845;59.422;17.930;2023-02-17T16:44:45;4.10;99.90
44695;DHT22;32845;59.422;17.930;2023-02-17T16:49:28;4.10;99.90
44695;DHT22;32845;59.422;17.930;2023-02-17T16:54:03;4.20;99.90
44695;DHT22;32845;59.422;17.930;2023-02-17T16:58:33;4.20;99.90
44695;DHT22;32845;59.422;17.930;2023-02-17T17:03:04;4.20;99.90
44695;DHT22;32845;59.422;17.930;2023-02-17T17:07:36;4.20;99.90
44695;DHT22;32845;59.422;17.930;2023-02-17T17:12:09;4.20;99.90
44695;DHT22;32845;59.422;17.930;2023-02-17T17:16:49;4.30;99.90
44695;DHT22;32845;59.422;17.930;2023-02-17T17:21:20;4.20;99.90
44695;DHT22;32845;59.422;17.930;2023-02-17T17:25:51;4.30;99.90
44695;DHT22;32845;59.422;17.930;2023-02-17T17:30:25;4.30;99.90
44695;DHT22;32845;59.422;17.930;2023-02-17T17:34:55;4.30;99.90
44695;DHT22;32845;59.422;17.930;2023-02-17T17:39:26;4.40;99.90
44695;DHT22;32845;59.422;17.930;2023-02-17T17:43:57;4.40;99.90
44695;DHT22;32845;59.422;17.930;2023-02-17T17:48:28;4.40;99.90
44695;DHT22;32845;59.422;17.930;2023-02-17T17:52:59;4.40;99.90
44695;DHT22;32845;59.422;17.930;2023-02-17T17:57:29;4.40;99.90
44695;DHT22;32845;59.422;17.930;2023-02-17T18:02:00;4.50;99.90
44695;DHT22;32845;59.422;17.930;2023-02-17T18:06:39;4.40;99.90
44695;DHT22;32845;59.422;17.930;2023-02-17T18:11:13;4.50;99.90
44695;DHT22;32845;59.422;17.930;2023-02-17T18:15:45;4.50;99.90
44695;DHT22;32845;59.422;17.930;2023-02-17T18:20:16;4.50;99.90
44695;DHT22;32845;59.422;17.930;2023-02-17T18:24:46;4.50;99.90
44695;DHT22;32845;59.422;17.930;2023-02-17T18:29:18;4.50;99.90
44695;DHT22;32845;59.422;17.930;2023-02-17T18:33:48;4.50;99.90
44695;DHT22;32845;59.422;17.930;2023-02-17T18:38:19;4.50;99.90
44695;DHT22;32845;59.422;17.930;2023-02-17T18:42:50;4.60;99.90
44695;DHT22;32845;59.422;17.930;2023-02-17T18:47:21;4.50;99.90
44695;DHT22;32845;59.422;17.930;2023-02-17T18:51:52;4.50;99.90
44695;DHT22;32845;59.422;17.930;2023-02-17T18:56:27;4.50;99.90
44695;DHT22;32845;59.422;17.930;2023-02-17T19:00:58;4.60;99.90
44695;DHT22;32845;59.422;17.930;2023-02-17T19:05:28;4.60;99.90
44695;DHT22;32845;59.422;17.930;2023-02-17T19:10:00;4.60;99.90
44695;DHT22;32845;59.422;17.930;2023-02-17T19:14:32;4.60;99.90
44695;DHT22;32845;59.422;17.930;2023-02-17T19:19:03;4.60;99.90
44695;DHT22;32845;59.422;17.930;2023-02-17T19:23:36;4.60;99.90
44695;DHT22;32845;59.422;17.930;2023-02-17T19:28:06;4.60;99.90
44695;DHT22;32845;59.422;17.930;2023-02-17T19:32:37;4.60;99.90
44695;DHT22;32845;59.422;17.930;2023-02-17T19:37:08;4.60;99.90
44695;DHT22;32845;59.422;17.930;2023-02-17T19:41:39;4.60;99.90
44695;DHT22;32845;59.422;17.930;2023-02-17T19:46:15;4.60;99.90
44695;DHT22;32845;59.422;17.930;2023-02-17T19:50:47;4.60;99.90
44695;DHT22;32845;59.422;17.930;2023-02-17T19:55:18;4.70;99.90
44695;DHT22;32845;59.422;17.930;2023-02-17T19:59:49;4.70;99.90
44695;DHT22;32845;59.422;17.930;2023-02-17T20:04:20;4.70;99.90
44695;DHT22;32845;59.422;17.930;2023-02-17T20:08:53;4.70;99.90
44695;DHT22;32845;59.422;17.930;2023-02-17T20:13:24;4.70;99.90
44695;DHT22;32845;59.422;17.930;2023-02-17T20:17:55;4.70;99.90
44695;DHT22;32845;59.422;17.930;2023-02-17T20:22:25;4.70;99.90
44695;DHT22;32845;59.422;17.930;2023-02-17T20:26:56;4.70;99.90
44695;DHT22;32845;59.422;17.930;2023-02-17T20:31:27;4.70;99.90
44695;DHT22;32845;59.422;17.930;2023-02-17T20:35:58;4.70;99.90
44695;DHT22;32845;59.422;17.930;2023-02-17T20:40:29;4.70;99.90
44695;DHT22;32845;59.422;17.930;2023-02-17T20:44:59;4.80;99.90
44695;DHT22;32845;59.422;17.930;2023-02-17T20:49:30;4.80;99.90
44695;DHT22;32845;59.422;17.930;2023-02-17T20:54:01;4.80;99.90
44695;DHT22;32845;59.422;17.930;2023-02-17T20:58:31;4.80;99.90
44695;DHT22;32845;59.422;17.930;2023-02-17T21:03:02;4.80;99.90
44695;DHT22;32845;59.422;17.930;2023-02-17T21:07:33;4.80;99.90
44695;DHT22;32845;59.422;17.930;2023-02-17T21:12:04;4.80;99.90
44695;DHT22;32845;59.422;17.930;2023-02-17T21:16:35;4.80;99.90
44695;DHT22;32845;59.422;17.930;2023-02-17T21:21:06;4.80;99.90
44695;DHT22;32845;59.422;17.930;2023-02-17T21:25:37;4.80;99.90
44695;DHT22;32845;59.422;17.930;2023-02-17T21:30:08;4.80;99.90
44695;DHT22;32845;59.422;17.930;2023-02-17T21:34:40;4.80;99.90
44695;DHT22;32845;59.422;17.930;2023-02-17T21:39:10;4.90;99.90
44695;DHT22;32845;59.422;17.930;2023-02-17T21:43:41;4.90;99.90
44695;DHT22;32845;59.422;17.930;2023-02-17T21:48:36;4.90;99.90
44695;DHT22;32845;59.422;17.930;2023-02-17T21:53:07;4.90;99.90
44695;DHT22;32845;59.422;17.930;2023-02-17T21:57:38;5.00;99.90
44695;DHT22;32845;59.422;17.930;2023-02-17T22:02:10;4.90;99.90
44695;DHT22;32845;59.422;17.930;2023-02-17T22:06:41;4.90;99.90
44695;DHT22;32845;59.422;17.930;2023-02-17T22:11:34;5.00;99.90
44695;DHT22;32845;59.422;17.930;2023-02-17T22:16:05;5.00;99.90
44695;DHT22;32845;59.422;17.930;2023-02-17T22:20:36;4.90;99.90
44695;DHT22;32845;59.422;17.930;2023-02-17T22:25:07;4.90;99.90
44695;DHT22;32845;59.422;17.930;2023-02-17T22:29:38;4.90;99.90
44695;DHT22;32845;59.422;17.930;2023-02-17T22:34:11;4.90;99.90
44695;DHT22;32845;59.422;17.930;2023-02-17T22:38:42;4.90;99.90
44695;DHT22;32845;59.422;17.930;2023-02-17T22:43:13;4.90;99.90
44695;DHT22;32845;59.422;17.930;2023-02-17T22:47:44;4.90;99.90
44695;DHT22;32845;59.422;17.930;2023-02-17T22:52:15;4.90;99.90
44695;DHT22;32845;59.422;17.930;2023-02-17T22:56:45;4.90;99.90
44695;DHT22;32845;59.422;17.930;2023-02-17T23:01:18;4.90;99.90
44695;DHT22;32845;59.422;17.930;2023-02-17T23:05:50;4.90;99.90
44695;DHT22;32845;59.422;17.930;2023-02-17T23:10:20;4.90;99.90
44695;DHT22;32845;59.422;17.930;2023-02-17T23:14:51;4.90;99.90
44695;DHT22;32845;59.422;17.930;2023-02-17T23:19:22;4.90;99.90
44695;DHT22;32845;59.422;17.930;2023-02-17T23:23:53;4.90;99.90
44695;DHT22;32845;59.422;17.930;2023-02-17T23:28:24;4.90;99.90
44695;DHT22;32845;59.422;17.930;2023-02-17T23:32:55;4.90;99.90
44695;DHT22;32845;59.422;17.930;2023-02-17T23:37:26;4.90;99.90
44695;DHT22;32845;59.422;17.930;2023-02-17T23:41:57;4.90;99.90
44695;DHT22;32845;59.422;17.930;2023-02-17T23:46:28;4.90;99.90
44695;DHT22;32845;59.422;17.930;2023-02-17T23:51:01;4.90;99.90
44695;DHT22;32845;59.422;17.930;2023-02-17T23:55:32;4.80;99.90
